Airways and Terminal Forecast

Significant Meteorological Information

Terminal Aerodrome Forecast

TAF RPLL

240500Z 2406/2512 13008KT 9999 FEW025 TX37/2406Z TN28/2421Z TEMPO 2409/2415 14013KT -TSRA FEW022CB SCT023 BKN100 TEMPO 2418/2424 10004KT=

TAF RPVM

240500Z 2406/2512 07007KT 9999 FEW020=

TAF RPLC

240500Z 2406/2512 16008KT 9999 FEW020 TX37/2406Z TN26/2421Z TEMPO 2406/2412 04004KT SCT020=

TAF RPLB

240500Z 2406/2506 08007KT 9999 FEW020 TX37/2406Z TN25/2421Z TEMPO 2406/2412 06013KT FEW018CB SCT020=

TAF RPLI

240500Z 2406/2506 34008KT 9999 FEW018 TEMPO 2406/2412 36012KT FEW017CB BKN080 BECMG 2413/2415 09004KT=

TAF RPVP

240500Z 2406/2506 12006KT 9999 FEW019 TEMPO 2406/2412 12012KT BECMG 2415/2416 27005KT TEMPO 2501/2506 13012KT SCT019=

TAF RPVD

240500Z 2406/2506 04008KT 9999 FEW015 TEMPO 2406/2412 07012KT TEMPO 2412/2418 32005KT FEW015 SCT070=

TAF RPMR

240500Z 2406/2506 02008KT 9999 FEW018 TEMPO 2406/2412 12010KT -SHRA FEW017CB SCT018 BKN080 TEMPO 2416/2422 34006KT=

TAF RPMD

240500Z 2406/2506 02005KT 9999 SCT016 TEMPO 2408/2414 15010KT SCT016 BKN090=

TAF RPMZ

240500Z 2406/2506 08005KT 9999 FEW017 SCT090 TEMPO 2406/2412 26010KT FEW016CB SCT017 SCT090 TEMPO 2417/2423 VRB02KT 8000 -SHRA FEW016CB SCT017 BKN090=

TAF RPVK

240500Z 2406/2506 08009KT 9999 FEW016 TEMPO 2418/2424 17005KT  SCT016 SCT070=

 

RPLL FORECAST TAKE-OFF CONDITION

TIME

(UTC)

WIND

(dddffKT)

TEMP

(°C)

QNH

(hPa)

TIME

(UTC)

WIND

(dddffKT)

TEMP

(°C)

QNH

(hPa)

0600

12008KT

37.0

1007.0

1000

13010KT

33.0

1008.0

0700

13010KT

36.0

1006.0

1100

12010KT

31.0

1009.0

0800

14013KT

35.0

1006.0

1200

12008KT

31.0

1010.0

0900

14013KT

34.0

1007.0

1300

11007KT

30.0

1010.0

 

ISSUED AT NAIA AMSS-WD/PAGASA-DOST FOR 0500UTC 24 APRIL 2024

PREPARED BY:   SSDH

CHECKED BY:     MPT

We always find ways to improve our weather products and services. Click Here to get started with our short survey. Your Feedback is important to us.